Terminal Aerodrome Forecast
Issued by NWS Upton, NY

Home | Current Version | Previous Version | Text Only | Print | Product List | Glossary On
Versions: 1 2 3 4 5 6 7 8 9 10 11 12 13 14 15 16 17 18 19 20 21 22 23 24 25 26 27 28 29 30 31 32 33 34 35
560
FTUS41 KOKX 040239 CCA
TAFJFK
TAF COR
KJFK 040239Z 0403/0506 07006KT 2SM -DZ BR SCT003 OVC006
      TEMPO 0403/0407 BKN003
     FM041500 08011G16KT 4SM -SHRA BR SCT006 OVC012
     FM050100 05008KT 5SM BR BKN006 OVC010=

USA.gov is the U.S. government's official web portal to all federal, state and local government web resources and services.